Time;durP1;ratioP1;P1;durP2;ratioP2;P2;SDS_P1;SDS_P2;PMS_P1;PMS_P2;Temp;Humidity;BMP_temperature;BMP_pressure;BME280_temperature;BME280_humidity;BME280_pressure;Samples;Min_cycle;Max_cycle;Signal;HPM_P1;HPM_P2
2022/12/04 00:02:12;;;;;;;81.17;48.50;;;;;;;1.22;82.78;101662.31;5092943;28;20103;-60
2022/12/04 00:04:37;;;;;;;81.03;50.83;;;;;;;1.11;82.45;101662.44;5093436;28;20028;-60
2022/12/04 00:07:03;;;;;;;81.87;52.93;;;;;;;1.19;82.61;101655.34;5094833;28;20130;-60
2022/12/04 00:09:28;;;;;;;79.55;51.47;;;;;;;1.18;82.68;101656.25;5113915;28;20111;-60
2022/12/04 00:11:54;;;;;;;86.50;49.65;;;;;;;1.16;83.10;101647.53;5114177;28;20162;-60
2022/12/04 00:14:19;;;;;;;82.47;51.33;;;;;;;1.09;82.57;101649.38;5113211;28;20030;-60
2022/12/04 00:16:44;;;;;;;82.90;53.20;;;;;;;1.18;82.72;101647.50;5096177;28;20122;-60
2022/12/04 00:19:10;;;;;;;82.10;51.90;;;;;;;1.05;82.81;101633.69;5103787;28;20500;-60
2022/12/04 00:21:36;;;;;;;81.63;50.63;;;;;;;1.19;82.70;101650.13;5096018;28;20031;-60
2022/12/04 00:24:01;;;;;;;80.15;52.10;;;;;;;1.02;83.27;101642.44;5125734;27;20032;-60
2022/12/04 00:26:27;;;;;;;82.37;52.67;;;;;;;0.97;83.17;101638.13;5086411;28;20131;-60
2022/12/04 00:28:53;;;;;;;83.70;52.40;;;;;;;1.04;83.16;101637.19;5104480;28;20027;-60
2022/12/04 00:31:24;;;;;;;84.03;52.43;;;;;;;1.19;83.07;101644.03;5093250;28;20171;-59
2022/12/04 00:33:49;;;;;;;83.67;49.37;;;;;;;1.14;82.83;101642.31;5105740;28;20027;-60
2022/12/04 00:36:17;;;;;;;78.47;51.17;;;;;;;1.13;82.71;101647.56;5112510;28;20489;-60
2022/12/04 00:38:43;;;;;;;80.87;52.27;;;;;;;1.17;83.02;101643.16;5109295;28;20043;-59
2022/12/04 00:41:14;;;;;;;84.55;51.72;;;;;;;1.20;82.65;101649.22;5093974;28;20044;-60
2022/12/04 00:43:39;;;;;;;80.20;50.23;;;;;;;1.10;83.15;101645.84;5096243;28;20491;-60
2022/12/04 00:46:08;;;;;;;78.77;51.93;;;;;;;1.06;83.18;101635.41;5093694;28;20030;-60
2022/12/04 00:48:34;;;;;;;82.18;51.00;;;;;;;1.02;82.75;101641.59;5075106;28;20044;-60
2022/12/04 00:51:08;;;;;;;77.97;47.40;;;;;;;1.12;82.73;101646.72;5096781;28;20027;-60
2022/12/04 00:53:34;;;;;;;79.97;51.58;;;;;;;1.19;83.14;101641.41;5092749;28;20149;-60
2022/12/04 00:56:12;;;;;;;79.17;49.60;;;;;;;1.11;83.62;101634.47;5091814;28;20114;-60
2022/12/04 00:58:38;;;;;;;80.83;52.10;;;;;;;1.18;82.88;101632.69;5072805;28;20029;-60
2022/12/04 01:01:07;;;;;;;83.73;51.43;;;;;;;1.16;82.89;101644.06;5076228;28;20181;-60
2022/12/04 01:03:33;;;;;;;79.53;51.10;;;;;;;1.15;83.64;101643.19;5100686;28;20032;-60
2022/12/04 01:05:59;;;;;;;81.63;53.47;;;;;;;1.08;83.68;101645.00;5112314;28;20031;-60
2022/12/04 01:08:24;;;;;;;79.43;49.07;;;;;;;0.99;83.33;101636.38;5112558;28;20372;-60
2022/12/04 01:10:50;;;;;;;77.90;50.97;;;;;;;1.02;83.39;101645.06;5084909;28;20040;-60
2022/12/04 01:13:15;;;;;;;80.13;51.93;;;;;;;1.07;83.59;101650.25;5072315;28;20107;-60
2022/12/04 01:15:42;;;;;;;79.23;51.10;;;;;;;1.11;83.55;101647.56;5072041;28;20032;-60
2022/12/04 01:18:09;;;;;;;83.27;48.70;;;;;;;1.13;83.38;101650.19;5071192;28;20483;-60
2022/12/04 01:20:35;;;;;;;75.87;49.80;;;;;;;1.17;83.20;101648.41;5075333;28;20051;-60
2022/12/04 01:23:00;;;;;;;81.30;51.27;;;;;;;1.12;83.14;101638.00;5078441;28;20480;-60
2022/12/04 01:25:26;;;;;;;76.97;50.93;;;;;;;1.12;83.37;101651.09;5093476;28;20046;-60
2022/12/04 01:27:52;;;;;;;75.90;51.70;;;;;;;1.16;83.38;101654.53;5091241;28;20023;-61
2022/12/04 01:30:17;;;;;;;76.13;49.90;;;;;;;1.19;83.02;101649.25;5094162;28;20430;-61
2022/12/04 01:32:43;;;;;;;80.53;51.80;;;;;;;1.15;83.00;101645.81;5111247;28;20031;-61
2022/12/04 01:35:08;;;;;;;78.53;51.80;;;;;;;1.11;82.85;101654.56;5111102;28;20020;-60
2022/12/04 01:37:34;;;;;;;75.07;47.90;;;;;;;1.15;83.11;101653.69;5111489;28;20510;-60
2022/12/04 01:40:00;;;;;;;75.23;50.03;;;;;;;1.08;82.91;101657.22;5110739;28;20062;-60
2022/12/04 01:42:26;;;;;;;77.50;51.10;;;;;;;1.13;82.91;101653.69;5110687;28;20049;-60
2022/12/04 01:45:33;;;;;;;78.90;51.53;;;;;;;1.19;83.51;101647.50;5112014;27;20067;-60
2022/12/04 01:48:10;;;;;;;76.53;47.33;;;;;;;1.16;83.42;101644.06;5094447;28;20636;-60
2022/12/04 01:50:35;;;;;;;78.10;51.03;;;;;;;1.17;83.18;101646.63;5098990;28;20031;-60
2022/12/04 01:53:01;;;;;;;78.27;52.20;;;;;;;1.17;83.13;101636.16;5106568;28;20028;-60
2022/12/04 01:55:29;;;;;;;70.43;49.27;;;;;;;1.13;82.89;101637.09;5092005;28;20031;-60
2022/12/04 01:57:57;;;;;;;78.27;53.17;;;;;;;1.07;83.25;101637.16;5092511;28;20028;-60
2022/12/04 02:00:24;;;;;;;78.00;50.77;;;;;;;1.07;83.19;101632.78;5091728;28;20113;-60
2022/12/04 02:02:49;;;;;;;78.43;50.47;;;;;;;1.05;83.60;101631.06;5091870;28;20032;-60
2022/12/04 02:05:21;;;;;;;81.40;53.60;;;;;;;1.03;83.14;101632.81;5092799;28;20032;-60
2022/12/04 02:07:50;;;;;;;78.33;52.53;;;;;;;0.96;83.59;101624.19;5092801;28;20043;-60
2022/12/04 02:10:26;;;;;;;81.50;48.05;;;;;;;0.96;83.51;101632.03;5091833;28;20032;-60
2022/12/04 02:13:11;;;;;;;83.43;53.30;;;;;;;0.96;83.91;101633.78;5110359;27;20024;-60
2022/12/04 02:15:51;;;;;;;79.47;49.10;;;;;;;1.02;83.86;101631.09;5110410;28;20106;-60
2022/12/04 02:18:49;;;;;;;79.20;52.00;;;;;;;1.00;84.22;101631.13;5088584;28;20157;-60
2022/12/04 02:21:25;;;;;;;78.60;49.03;;;;;;;1.06;83.93;101628.44;5063239;28;20045;-59
2022/12/04 02:24:14;;;;;;;76.47;52.20;;;;;;;1.10;83.94;101632.75;5088384;28;21009;-60
2022/12/04 02:27:05;;;;;;;73.47;48.13;;;;;;;1.14;83.33;101629.19;5092427;28;20040;-60
2022/12/04 02:29:55;;;;;;;78.07;52.93;;;;;;;1.14;83.04;101628.34;5102214;28;20032;-60
2022/12/04 02:32:30;;;;;;;78.03;48.03;;;;;;;1.09;83.27;101628.41;5096311;28;20016;-60
2022/12/04 02:35:13;;;;;;;75.93;53.30;;;;;;;1.02;83.29;101626.72;5091283;28;20032;-60
2022/12/04 02:37:44;;;;;;;75.83;48.80;;;;;;;1.02;83.57;101621.50;5091308;28;20066;-60
2022/12/04 02:40:24;;;;;;;78.73;52.30;;;;;;;1.00;83.78;101631.13;5094322;28;20066;-60
2022/12/04 02:43:43;;;;;;;78.07;50.27;;;;;;;1.13;83.51;101631.84;5108828;28;20020;-60
2022/12/04 02:46:46;;;;;;;76.20;52.85;;;;;;;1.15;83.61;101632.72;5033152;28;20029;-60
2022/12/04 02:49:18;;;;;;;72.27;48.60;;;;;;;1.07;83.75;101634.56;5051791;28;20112;-59
2022/12/04 02:51:48;;;;;;;81.23;53.17;;;;;;;1.09;83.51;101627.56;5104293;28;20044;-60
2022/12/04 02:54:26;;;;;;;76.33;52.07;;;;;;;1.07;83.54;101627.56;5094771;28;20024;-60
2022/12/04 02:56:53;;;;;;;79.57;53.50;;;;;;;0.96;84.24;101616.31;5094919;28;20059;-60
2022/12/04 02:59:40;;;;;;;75.30;49.03;;;;;;;1.00;83.46;101620.66;5095255;28;20024;-60
2022/12/04 03:02:46;;;;;;;78.50;53.97;;;;;;;1.04;83.71;101614.50;5105912;28;20040;-60
2022/12/04 03:05:17;;;;;;;77.90;52.47;;;;;;;0.96;83.69;101607.59;5114329;28;20096;-60
2022/12/04 03:07:54;;;;;;;76.40;53.30;;;;;;;0.99;84.16;101616.28;5115349;28;20410;-60
2022/12/04 03:10:30;;;;;;;77.40;50.27;;;;;;;1.00;83.89;101612.81;5115274;27;20035;-60
2022/12/04 03:13:19;;;;;;;80.67;55.07;;;;;;;0.94;84.18;101617.22;5113224;28;20030;-60
2022/12/04 03:15:58;;;;;;;73.40;48.87;;;;;;;1.02;83.67;101624.09;5097828;27;20028;-60
2022/12/04 03:18:31;;;;;;;80.70;54.53;;;;;;;0.96;84.27;101610.22;5109432;28;20110;-60
2022/12/04 03:21:07;;;;;;;78.50;54.27;;;;;;;0.96;83.94;101618.94;5115057;28;20103;-60
2022/12/04 03:24:12;;;;;;;79.07;52.13;;;;;;;1.06;83.58;101615.34;5102967;28;20443;-60
2022/12/04 03:26:51;;;;;;;75.43;52.10;;;;;;;1.00;83.46;101622.38;5031034;28;20159;-60
2022/12/04 03:29:21;;;;;;;83.57;50.78;;;;;;;1.08;83.40;101615.31;5093320;28;20036;-60
2022/12/04 03:31:54;;;;;;;81.03;55.60;;;;;;;1.10;83.19;101611.81;5084152;28;20028;-60
2022/12/04 03:34:32;;;;;;;80.03;55.30;;;;;;;1.00;83.41;101612.81;5074674;28;20031;-59
2022/12/04 03:37:05;;;;;;;78.10;49.38;;;;;;;1.08;82.64;101610.06;5091445;28;20053;-60
2022/12/04 03:39:41;;;;;;;77.47;54.53;;;;;;;1.13;82.88;101608.28;5073412;28;20173;-60
2022/12/04 03:42:17;;;;;;;77.53;51.77;;;;;;;1.11;82.98;101600.41;5074801;28;20033;-60
2022/12/04 03:44:55;;;;;;;81.07;54.63;;;;;;;1.11;83.67;101605.66;5074909;28;20028;-60
2022/12/04 03:47:49;;;;;;;79.47;54.47;;;;;;;1.14;83.01;101607.38;5092478;28;20019;-60
2022/12/04 03:50:20;;;;;;;77.93;52.40;;;;;;;1.10;82.60;101603.94;5083800;28;20097;-60
2022/12/04 03:53:13;;;;;;;79.90;54.87;;;;;;;1.18;82.79;101606.47;5075020;28;20039;-59
2022/12/04 03:55:59;;;;;;;82.73;56.23;;;;;;;1.13;83.09;101601.28;5074543;28;20029;-60
2022/12/04 03:58:29;;;;;;;82.55;57.10;;;;;;;1.02;82.48;101597.91;5112336;28;20030;-60
2022/12/04 04:00:57;;;;;;;79.18;54.95;;;;;;;1.02;83.00;101608.41;5107398;28;20032;-60
2022/12/04 04:03:28;;;;;;;82.30;57.15;;;;;;;0.98;83.09;101605.84;5126761;27;20110;-60
2022/12/04 04:06:04;;;;;;;79.97;50.50;;;;;;;0.99;82.95;101592.72;5093105;28;20557;-60
2022/12/04 04:08:34;;;;;;;80.20;56.67;;;;;;;0.98;82.56;101588.38;5094935;28;20048;-60
2022/12/04 04:11:12;;;;;;;78.07;54.83;;;;;;;1.00;82.56;101602.31;5083402;28;20078;-60
2022/12/04 04:25:01;;;;;;;81.18;56.00;;;;;;;0.99;83.02;101604.94;5071454;28;20051;-60
2022/12/04 04:27:27;;;;;;;80.87;53.57;;;;;;;1.04;83.38;101598.78;5086381;28;20120;-60
2022/12/04 04:29:52;;;;;;;82.97;55.50;;;;;;;1.00;83.20;101612.81;5081081;28;20032;-60
2022/12/04 04:32:24;;;;;;;79.57;55.87;;;;;;;1.03;82.82;101607.53;5092575;28;20471;-60
2022/12/04 04:35:13;;;;;;;81.57;51.23;;;;;;;1.02;82.90;101591.81;5093241;28;20059;-60
2022/12/04 04:38:10;;;;;;;78.43;54.50;;;;;;;0.98;83.33;101598.84;5102250;28;20031;-60
2022/12/04 04:40:49;;;;;;;81.87;57.20;;;;;;;1.01;83.40;101596.19;5113704;28;20126;-60
2022/12/04 04:43:22;;;;;;;83.83;56.47;;;;;;;1.04;82.99;101600.53;5113445;28;20023;-60
2022/12/04 04:45:52;;;;;;;84.53;58.20;;;;;;;0.94;83.35;101597.13;5113527;27;20028;-61
2022/12/04 04:48:21;;;;;;;81.43;57.07;;;;;;;0.98;83.17;101598.84;5095351;28;20376;-60
2022/12/04 04:50:50;;;;;;;76.30;49.87;;;;;;;0.97;83.26;101601.47;5093083;28;20130;-60
2022/12/04 04:53:20;;;;;;;79.43;56.23;;;;;;;0.99;83.42;101595.34;5093553;28;20591;-60
2022/12/04 04:55:46;;;;;;;82.10;55.60;;;;;;;0.97;83.05;101606.72;5092969;28;20043;-59
2022/12/04 04:58:15;;;;;;;77.33;55.23;;;;;;;1.02;83.11;101603.16;5093976;28;20027;-60
2022/12/04 05:00:48;;;;;;;80.43;56.40;;;;;;;1.03;82.91;101597.06;5072450;28;20032;-60
2022/12/04 05:03:13;;;;;;;81.40;52.67;;;;;;;1.01;83.35;101611.03;5073199;28;20472;-60
2022/12/04 05:05:39;;;;;;;84.00;57.15;;;;;;;0.89;83.53;101614.66;5092701;28;20101;-60
2022/12/04 05:08:04;;;;;;;80.20;57.07;;;;;;;0.95;83.96;101608.50;5099405;28;20494;-60
2022/12/04 05:10:30;;;;;;;80.27;55.17;;;;;;;1.00;83.52;101612.81;5093036;28;20110;-60
2022/12/04 05:12:56;;;;;;;79.43;55.23;;;;;;;0.94;83.79;101612.84;5091573;28;20070;-60
2022/12/04 05:15:21;;;;;;;80.00;55.33;;;;;;;1.03;83.66;101611.88;5092934;28;20031;-60
2022/12/04 05:17:47;;;;;;;76.27;52.67;;;;;;;1.07;83.53;101611.84;5091421;28;20035;-60
2022/12/04 05:20:13;;;;;;;80.13;55.47;;;;;;;1.12;83.31;101610.03;5100186;28;20130;-60
2022/12/04 05:22:40;;;;;;;83.40;57.20;;;;;;;0.88;83.39;101582.38;5111330;28;20043;-60
2022/12/04 05:25:07;;;;;;;82.13;55.73;;;;;;;1.03;83.75;101612.78;5111149;28;20039;-60
2022/12/04 05:27:33;;;;;;;80.63;56.70;;;;;;;0.99;84.01;101602.31;5111457;28;20043;-60
2022/12/04 05:29:58;;;;;;;77.97;53.37;;;;;;;1.02;83.89;101610.16;5106075;28;20032;-60
2022/12/04 05:32:26;;;;;;;81.93;55.20;;;;;;;1.01;84.10;101608.44;5095176;28;20501;-60
2022/12/04 05:34:53;;;;;;;81.77;57.20;;;;;;;0.96;84.06;101605.84;5095324;28;20026;-60
2022/12/04 05:37:19;;;;;;;81.07;56.38;;;;;;;0.98;83.39;101605.84;5092320;28;20028;-60
2022/12/04 05:39:45;;;;;;;85.00;56.83;;;;;;;0.93;84.22;101597.16;5090383;28;20379;-60
2022/12/04 05:42:10;;;;;;;80.23;56.97;;;;;;;1.04;84.45;101601.41;5121812;27;20035;-60
2022/12/04 05:44:41;;;;;;;77.10;52.63;;;;;;;0.97;83.68;101598.84;5118924;27;20471;-60
2022/12/04 05:47:08;;;;;;;;;;;;;;;1.13;83.66;101603.03;5087980;28;20081;-60
2022/12/04 05:49:34;;;;;;;80.00;55.10;;;;;;;1.05;83.74;101597.88;5083729;28;19956;-60
2022/12/04 05:52:03;;;;;;;77.80;52.93;;;;;;;1.10;83.93;101603.06;5072927;28;20064;-60
2022/12/04 05:54:28;;;;;;;79.13;55.37;;;;;;;0.96;83.60;101581.41;5095380;28;20109;-60
2022/12/04 05:56:53;;;;;;;77.97;55.17;;;;;;;1.01;83.72;101592.72;5077974;28;20028;-60
2022/12/04 05:59:19;;;;;;;81.57;56.73;;;;;;;1.00;84.19;101594.47;5071821;28;20071;-60
2022/12/04 06:01:45;;;;;;;80.17;53.03;;;;;;;0.94;83.72;101581.41;5071807;28;20028;-59
2022/12/04 06:04:13;;;;;;;83.97;56.30;;;;;;;0.98;84.62;101587.50;5071575;28;20031;-60
2022/12/04 06:06:39;;;;;;;83.43;56.03;;;;;;;1.02;84.47;101584.81;5072649;28;20037;-60
2022/12/04 06:09:06;;;;;;;77.37;55.13;;;;;;;0.99;84.14;101584.00;5071493;28;20043;-60
2022/12/04 06:11:36;;;;;;;82.43;55.43;;;;;;;1.00;84.45;101581.38;5075549;28;20111;-60
2022/12/04 06:14:04;;;;;;;81.90;53.38;;;;;;;1.02;84.28;101589.19;5091429;28;20027;-60
2022/12/04 06:16:34;;;;;;;79.30;54.87;;;;;;;0.98;84.52;101588.38;5089929;28;20047;-60
2022/12/04 06:19:01;;;;;;;;;;;;;;;1.14;83.92;101587.28;5072001;28;20390;-60
2022/12/04 06:21:30;;;;;;;82.80;50.40;;;;;;;1.09;83.77;101583.03;5089767;28;20014;-60
2022/12/04 06:23:55;;;;;;;77.27;55.73;;;;;;;1.01;84.49;101583.09;5070659;28;20434;-60
2022/12/04 06:26:24;;;;;;;78.73;53.93;;;;;;;1.03;84.56;101588.31;5078137;28;20028;-60
2022/12/04 06:28:55;;;;;;;81.23;56.10;;;;;;;1.06;84.83;101586.53;5090105;28;20032;-60
2022/12/04 06:31:22;;;;;;;83.10;56.83;;;;;;;0.98;84.80;101585.75;5091440;28;20494;-60
2022/12/04 06:33:50;;;;;;;83.83;57.90;;;;;;;1.03;84.35;101588.31;5091534;28;20099;-60
2022/12/04 06:36:18;;;;;;;80.65;54.92;;;;;;;1.05;84.85;101591.78;5091430;28;20028;-60
2022/12/04 06:38:46;;;;;;;79.83;55.00;;;;;;;1.01;84.65;101583.09;5089703;28;20037;-60
2022/12/04 06:41:14;;;;;;;83.77;57.37;;;;;;;1.05;84.70;101595.25;5091381;28;20363;-60
2022/12/04 06:43:41;;;;;;;79.80;55.77;;;;;;;1.07;84.20;101592.63;5090996;28;20081;-60
2022/12/04 06:46:12;;;;;;;80.53;57.37;;;;;;;1.01;84.82;101590.09;5092341;28;20020;-60
2022/12/04 06:48:39;;;;;;;80.47;56.40;;;;;;;1.09;84.80;101594.34;5090400;28;20487;-60
2022/12/04 06:51:06;;;;;;;81.23;51.80;;;;;;;1.05;84.48;101591.78;5091486;28;20032;-60
2022/12/04 06:53:33;;;;;;;83.17;57.60;;;;;;;1.07;84.66;101588.25;5090859;28;20036;-60
2022/12/04 06:56:01;;;;;;;81.40;56.03;;;;;;;1.05;85.03;101597.00;5090128;28;20039;-60
2022/12/04 06:58:27;;;;;;;85.67;59.50;;;;;;;0.96;85.02;101587.50;5077066;28;20035;-60
2022/12/04 07:00:53;;;;;;;80.47;58.50;;;;;;;1.00;85.15;101598.81;5085594;28;20150;-60
2022/12/04 07:03:18;;;;;;;79.00;56.27;;;;;;;0.98;84.88;101608.47;5094684;28;20537;-60
2022/12/04 07:05:44;;;;;;;87.20;59.87;;;;;;;0.96;84.90;101610.22;5082036;28;20511;-60
2022/12/04 07:08:10;;;;;;;83.32;56.65;;;;;;;1.02;84.69;101610.16;5074694;28;20068;-60
2022/12/04 07:10:36;;;;;;;79.88;57.42;;;;;;;1.04;84.90;101603.16;5086882;28;20154;-59
2022/12/04 07:13:05;;;;;;;83.37;57.87;;;;;;;1.03;84.92;101609.25;5070992;28;20107;-60
2022/12/04 07:15:32;;;;;;;77.17;55.20;;;;;;;1.12;84.75;101612.66;5071013;28;20471;-60
2022/12/04 07:17:57;;;;;;;80.20;56.63;;;;;;;0.93;84.64;101595.41;5072346;28;20020;-59
2022/12/04 07:20:23;;;;;;;77.00;55.17;;;;;;;0.97;84.90;101614.56;5082626;28;20051;-60
2022/12/04 07:22:48;;;;;;;81.73;56.33;;;;;;;1.01;84.75;101616.28;5090960;28;20076;-60
2022/12/04 07:25:14;;;;;;;76.73;55.30;;;;;;;1.09;84.67;101624.94;5090919;28;20028;-60
2022/12/04 07:27:42;;;;;;;78.30;54.93;;;;;;;1.05;84.77;101618.84;5090919;28;20035;-60
2022/12/04 07:30:08;;;;;;;78.77;54.43;;;;;;;1.08;84.52;101628.41;5094656;28;20032;-60
2022/12/04 07:32:34;;;;;;;75.83;54.67;;;;;;;1.10;84.23;101624.91;5094328;28;20016;-60
2022/12/04 07:34:59;;;;;;;76.63;53.30;;;;;;;1.06;84.49;101631.06;5094076;28;20039;-60
2022/12/04 07:37:25;;;;;;;74.93;53.67;;;;;;;1.00;85.35;101617.16;5094971;28;20023;-60
2022/12/04 07:39:51;;;;;;;77.70;55.33;;;;;;;1.02;85.02;101625.88;5091552;28;20410;-60
2022/12/04 07:42:17;;;;;;;75.32;53.20;;;;;;;1.09;84.87;101624.94;5094388;28;20024;-60
2022/12/04 07:44:43;;;;;;;73.65;52.35;;;;;;;1.07;84.35;101626.69;5094097;28;20034;-61
2022/12/04 07:47:08;;;;;;;79.00;53.33;;;;;;;1.07;84.64;101627.56;5089882;28;20029;-60
2022/12/04 07:49:34;;;;;;;77.47;54.00;;;;;;;1.19;84.61;101633.53;5089680;28;20028;-60
2022/12/04 07:52:02;;;;;;;75.47;52.87;;;;;;;1.17;84.82;101632.69;5106632;28;20039;-60
2022/12/04 07:54:27;;;;;;;72.38;51.80;;;;;;;1.19;84.17;101629.16;5087813;28;20111;-60
2022/12/04 07:56:53;;;;;;;71.05;52.10;;;;;;;1.10;84.19;101629.28;5094013;28;20115;-60
2022/12/04 07:59:18;;;;;;;75.18;53.55;;;;;;;1.13;84.46;101637.97;5075215;28;20029;-60
2022/12/04 08:01:43;;;;;;;70.75;51.63;;;;;;;1.11;84.42;101631.00;5106244;28;20062;-60
2022/12/04 08:04:10;;;;;;;70.18;51.10;;;;;;;1.07;84.56;101634.56;5073341;28;20153;-61
2022/12/04 08:06:36;;;;;;;70.23;51.13;;;;;;;1.03;84.17;101630.22;5088763;28;20055;-60
2022/12/04 08:09:07;;;;;;;69.63;51.05;;;;;;;1.10;84.36;101630.13;5066966;28;20087;-60
2022/12/04 08:11:33;;;;;;;69.73;50.73;;;;;;;1.10;84.05;101629.28;5100260;27;20024;-60
2022/12/04 08:14:03;;;;;;;64.83;48.87;;;;;;;1.10;84.09;101640.63;5093716;28;20217;-59
2022/12/04 08:16:30;;;;;;;68.78;50.25;;;;;;;1.12;84.43;101643.22;5093783;28;20203;-59
2022/12/04 08:18:57;;;;;;;65.53;49.85;;;;;;;1.06;83.74;101649.41;5093426;28;20050;-60
2022/12/04 08:21:25;;;;;;;69.33;51.53;;;;;;;1.04;84.37;101640.69;5090642;28;20030;-60
2022/12/04 08:23:52;;;;;;;66.72;49.88;;;;;;;1.22;84.06;101641.38;5077253;28;20130;-60
2022/12/04 08:26:19;;;;;;;64.30;46.40;;;;;;;1.15;83.78;101656.28;5093267;28;20027;-59
2022/12/04 08:28:44;;;;;;;67.88;49.60;;;;;;;1.20;84.01;101651.84;5093082;28;20051;-60
2022/12/04 08:31:15;;;;;;;62.88;47.25;;;;;;;1.15;84.37;101651.06;5071742;28;20126;-60
2022/12/04 08:33:44;;;;;;;64.75;47.88;;;;;;;1.22;83.79;101655.31;5071546;28;20383;-60
2022/12/04 08:36:12;;;;;;;64.55;49.05;;;;;;;1.14;83.83;101647.53;5075109;28;20021;-60
2022/12/04 08:38:38;;;;;;;62.53;46.72;;;;;;;1.23;83.69;101640.47;5094363;28;20016;-59
2022/12/04 08:41:06;;;;;;;59.30;44.85;;;;;;;1.21;83.34;101643.13;5085266;28;20486;-60
2022/12/04 08:43:34;;;;;;;60.45;45.35;;;;;;;1.19;83.43;101638.78;5093349;28;20024;-60
2022/12/04 08:46:04;;;;;;;60.50;45.92;;;;;;;1.16;83.75;101644.06;5100369;28;20036;-60
2022/12/04 08:48:30;;;;;;;61.17;44.92;;;;;;;1.20;84.21;101636.13;5107859;28;20023;-60
2022/12/04 08:50:57;;;;;;;55.50;42.55;;;;;;;1.27;83.69;101639.56;5098992;28;20520;-60
2022/12/04 08:53:23;;;;;;;63.45;44.85;;;;;;;1.14;83.53;101628.34;5095553;28;20052;-60
2022/12/04 08:55:49;;;;;;;61.30;43.25;;;;;;;1.25;83.04;101636.94;5095280;28;20020;-60
2022/12/04 08:58:15;;;;;;;55.53;41.97;;;;;;;1.32;83.59;101642.97;5092312;28;20015;-60
2022/12/04 09:00:41;;;;;;;57.13;43.53;;;;;;;1.31;82.94;101636.00;5082114;28;20082;-60
2022/12/04 09:03:11;;;;;;;53.50;42.17;;;;;;;1.35;83.03;101630.72;5071449;28;20097;-60
2022/12/04 09:05:40;;;;;;;;;;;;;;;1.47;83.35;101628.81;5073052;28;20032;-60
2022/12/04 09:08:06;;;;;;;56.85;40.28;;;;;;;1.41;82.83;101636.75;5095449;28;20285;-60
2022/12/04 09:10:35;;;;;;;53.30;40.67;;;;;;;1.38;nan;101640.28;5092560;28;20024;-60
2022/12/04 09:13:01;;;;;;;69.95;49.58;;;;;;;1.43;82.40;101641.09;5089546;28;20444;-60
2022/12/04 09:15:26;;;;;;;81.78;58.15;;;;;;;1.50;82.48;101639.25;5110483;27;20044;-59
2022/12/04 09:17:52;;;;;;;60.00;45.72;;;;;;;1.51;83.05;101638.38;5100795;28;20089;-60
2022/12/04 09:20:18;;;;;;;55.83;41.63;;;;;;;1.48;82.16;101644.53;5094291;28;20038;-60
2022/12/04 09:22:44;;;;;;;47.03;37.17;;;;;;;1.50;82.15;101642.78;5092427;28;20040;-60
2022/12/04 09:25:10;;;;;;;51.63;39.67;;;;;;;1.47;82.74;101650.69;5091656;28;20505;-60
2022/12/04 09:27:37;;;;;;;58.50;44.50;;;;;;;1.52;81.99;101642.72;5094013;28;20028;-59
2022/12/04 09:30:08;;;;;;;53.47;41.55;;;;;;;1.44;81.63;101653.34;5112235;28;20026;-59
2022/12/04 09:32:34;;;;;;;57.08;42.45;;;;;;;1.45;81.88;101648.94;5111472;28;20035;-60
2022/12/04 09:34:59;;;;;;;53.40;40.92;;;;;;;1.52;82.22;101647.97;5100681;28;20032;-60
2022/12/04 09:37:25;;;;;;;53.55;41.05;;;;;;;1.46;81.43;101653.31;5097475;28;20092;-60
2022/12/04 09:39:51;;;;;;;51.00;37.90;;;;;;;1.43;81.27;101645.47;5092521;28;20052;-60
2022/12/04 09:42:16;;;;;;;52.28;40.28;;;;;;;1.50;81.56;101652.34;5091991;28;20489;-59
2022/12/04 09:44:49;;;;;;;52.75;39.90;;;;;;;1.48;81.45;101646.28;5091546;28;20072;-59
2022/12/04 09:47:45;;;;;;;49.42;39.08;;;;;;;1.57;81.47;101646.16;5092098;28;20031;-59
2022/12/04 09:50:52;;;;;;;55.83;41.70;;;;;;;1.54;81.21;101638.34;5091408;28;20044;-59
2022/12/04 09:53:19;;;;;;;48.15;36.67;;;;;;;1.61;81.07;101650.47;5032479;28;20429;-60
2022/12/04 09:56:13;;;;;;;43.70;34.00;;;;;;;1.64;80.30;101657.44;5009681;28;20036;-60
2022/12/04 09:58:49;;;;;;;43.38;33.47;;;;;;;1.46;80.51;101651.53;5089032;28;20048;-60
2022/12/04 10:01:25;;;;;;;41.65;32.88;;;;;;;1.40;80.69;101664.72;5091853;28;20115;-60
2022/12/04 10:03:52;;;;;;;44.38;34.72;;;;;;;1.35;80.59;101666.53;5089458;28;20027;-60
2022/12/04 10:06:39;;;;;;;44.92;33.40;;;;;;;1.44;80.45;101649.81;5090075;28;20096;-60
2022/12/04 10:09:19;;;;;;;45.30;35.25;;;;;;;1.42;80.42;101646.38;5091555;28;20030;-60
2022/12/04 10:11:53;;;;;;;;;;;;;;;1.51;80.63;101660.22;5103180;28;20031;-60
2022/12/04 10:14:36;;;;;;;54.38;39.22;;;;;;;1.46;80.34;101661.16;5087060;28;20034;-62
2022/12/04 10:17:04;;;;;;;48.75;38.80;;;;;;;1.48;80.93;101654.16;5085933;28;20033;-60
2022/12/04 10:19:57;;;;;;;48.40;35.95;;;;;;;1.55;80.55;101642.69;5071287;28;20471;-60
2022/12/04 10:22:38;;;;;;;47.78;36.40;;;;;;;1.52;81.08;101645.34;5103934;28;20032;-59
2022/12/04 10:25:10;;;;;;;40.53;31.02;;;;;;;1.46;80.30;101645.44;5107545;28;20028;-60
2022/12/04 10:27:43;;;;;;;41.90;32.67;;;;;;;1.46;80.49;101642.81;5071415;28;20074;-59
2022/12/04 10:30:19;;;;;;;45.78;33.85;;;;;;;1.46;80.60;101645.44;5072597;28;20034;-59
2022/12/04 10:32:46;;;;;;;45.63;34.83;;;;;;;1.38;80.26;101642.91;5095168;28;20122;-59
2022/12/04 10:35:23;;;;;;;47.20;36.38;;;;;;;1.29;80.49;101648.25;5090117;28;20021;-60
2022/12/04 10:38:32;;;;;;;44.70;34.30;;;;;;;1.40;80.84;101658.63;5080860;28;20040;-59
2022/12/04 10:41:31;;;;;;;48.43;35.90;;;;;;;1.28;80.90;101633.44;5088551;28;20044;-59
2022/12/04 10:43:56;;;;;;;44.22;34.28;;;;;;;1.36;81.23;101657.78;5093754;27;20769;-60
2022/12/04 10:46:33;;;;;;;45.65;34.75;;;;;;;1.41;80.51;101650.72;5082787;28;20038;-59
2022/12/04 10:49:03;;;;;;;48.22;37.15;;;;;;;1.32;80.85;101650.84;5107541;28;20063;-60
2022/12/04 10:51:41;;;;;;;48.03;36.75;;;;;;;1.31;80.97;101649.13;5093379;28;20057;-60
2022/12/04 10:54:42;;;;;;;52.25;40.75;;;;;;;1.39;81.17;101646.41;5095475;28;20030;-60
2022/12/04 10:57:10;;;;;;;59.38;45.83;;;;;;;1.30;81.63;101652.63;5111606;28;20027;-59
2022/12/04 10:59:50;;;;;;;56.97;42.85;;;;;;;1.39;81.32;101636.78;5104890;28;20383;-59
2022/12/04 11:02:23;;;;;;;44.08;35.85;;;;;;;1.41;81.56;101636.75;5082096;28;20039;-59
2022/12/04 11:05:01;;;;;;;45.78;35.10;;;;;;;1.43;81.64;101637.63;5093313;28;20115;-59
2022/12/04 11:07:30;;;;;;;44.63;37.20;;;;;;;1.40;81.03;101625.41;5085075;28;20035;-60
2022/12/04 11:10:21;;;;;;;50.10;37.85;;;;;;;1.45;81.45;101634.09;5090000;28;20035;-59
2022/12/04 11:13:03;;;;;;;42.70;35.03;;;;;;;1.47;81.24;101629.72;5098642;28;20377;-59
2022/12/04 11:15:31;;;;;;;46.08;36.35;;;;;;;1.45;80.84;101615.75;5100939;28;20028;-59
2022/12/04 11:18:19;;;;;;;52.65;40.35;;;;;;;1.57;81.39;101622.59;5108265;28;20111;-59
2022/12/04 11:20:58;;;;;;;46.55;36.95;;;;;;;1.54;81.29;101620.88;5095007;28;20168;-59
2022/12/04 11:23:25;;;;;;;46.53;35.28;;;;;;;1.45;80.91;101625.38;5096783;28;20092;-59
2022/12/04 11:25:54;;;;;;;46.45;36.90;;;;;;;1.46;80.65;101617.47;5095268;28;20375;-59
2022/12/04 11:28:28;;;;;;;44.88;34.78;;;;;;;1.44;81.00;101605.25;5094520;28;20145;-60
2022/12/04 11:30:58;;;;;;;45.50;33.90;;;;;;;1.30;81.82;101608.94;5095495;28;20500;-60
2022/12/04 11:33:45;;;;;;;42.97;34.15;;;;;;;1.35;81.89;101607.16;5081288;28;20027;-60
2022/12/04 11:36:24;;;;;;;43.78;33.00;;;;;;;1.27;81.78;101611.59;5094364;28;20077;-59
2022/12/04 11:38:53;;;;;;;39.58;32.60;;;;;;;1.37;81.19;101601.88;5093272;28;20115;-60
2022/12/04 11:41:36;;;;;;;44.60;35.13;;;;;;;1.35;81.92;101609.75;5093647;28;20024;-59
2022/12/04 11:44:05;;;;;;;45.42;36.88;;;;;;;1.45;81.40;101607.03;5098428;28;20050;-59
2022/12/04 11:46:33;;;;;;;40.13;33.80;;;;;;;1.44;81.30;101616.63;5114440;28;20034;-59
2022/12/04 11:48:59;;;;;;;42.22;34.15;;;;;;;1.40;81.62;101604.44;5105545;28;20502;-59
2022/12/04 11:51:46;;;;;;;41.45;33.35;;;;;;;1.44;81.84;101613.13;5085540;28;20024;-59